Time;durP1;ratioP1;P1;durP2;ratioP2;P2;SDS_P1;SDS_P2;PMS_P1;PMS_P2;Temp;Humidity;BMP_temperature;BMP_pressure;BME280_temperature;BME280_humidity;BME280_pressure;Samples;Min_cycle;Max_cycle;Signal;HPM_P1;HPM_P2
2022/04/04 00:00:45;;;;;;;17.20;4.47;;;;;;;;;;5092665;28;20153;-68
2022/04/04 00:03:12;;;;;;;9.57;5.30;;;;;;;;;;5092966;28;20110;-67
2022/04/04 00:05:38;;;;;;;9.38;5.13;;;;;;;;;;5092904;28;20039;-68
2022/04/04 00:08:06;;;;;;;8.57;5.75;;;;;;;;;;5092473;28;20016;-67
2022/04/04 00:10:33;;;;;;;11.80;5.55;;;;;;;;;;5090132;28;20343;-69
2022/04/04 00:12:59;;;;;;;9.18;5.13;;;;;;;;;;5087451;28;20028;-68
2022/04/04 00:15:27;;;;;;;7.05;5.03;;;;;;;;;;5087401;28;20031;-66
2022/04/04 00:17:57;;;;;;;12.55;5.28;;;;;;;;;;5086887;28;20375;-67
2022/04/04 00:20:25;;;;;;;10.63;5.72;;;;;;;;;;5089433;28;20031;-68
2022/04/04 00:22:51;;;;;;;14.63;5.68;;;;;;;;;;5092513;28;20384;-68
2022/04/04 00:25:18;;;;;;;7.95;5.00;;;;;;;;;;5092277;28;20024;-67
2022/04/04 00:27:48;;;;;;;8.10;5.18;;;;;;;;;;5092216;28;20093;-67
2022/04/04 00:30:15;;;;;;;7.90;5.20;;;;;;;;;;5092287;28;20497;-67
2022/04/04 00:32:42;;;;;;;12.35;5.60;;;;;;;;;;5089978;28;20024;-67
2022/04/04 00:35:08;;;;;;;9.00;6.10;;;;;;;;;;5086711;28;20123;-67
2022/04/04 00:37:37;;;;;;;10.05;5.22;;;;;;;;;;5069047;28;20379;-68
2022/04/04 00:40:05;;;;;;;9.25;5.55;;;;;;;;;;5086619;28;20451;-67
2022/04/04 00:42:32;;;;;;;11.90;6.13;;;;;;;;;;5088136;28;20099;-67
2022/04/04 00:44:59;;;;;;;17.83;8.05;;;;;;;;;;5091317;28;20506;-67
2022/04/04 00:47:26;;;;;;;19.13;8.02;;;;;;;;;;5092064;28;20050;-67
2022/04/04 00:49:53;;;;;;;21.02;8.27;;;;;;;;;;5092394;28;20099;-68
2022/04/04 00:52:19;;;;;;;20.33;8.95;;;;;;;;;;5092015;28;20063;-67
2022/04/04 00:54:46;;;;;;;17.25;9.50;;;;;;;;;;5090507;28;20550;-67
2022/04/04 00:57:13;;;;;;;18.02;9.60;;;;;;;;;;5086433;28;20020;-67
2022/04/04 00:59:40;;;;;;;18.70;9.65;;;;;;;;;;5086404;28;20074;-67
2022/04/04 01:02:07;;;;;;;21.23;10.18;;;;;;;;;;5086592;28;20471;-67
2022/04/04 01:04:34;;;;;;;22.25;10.40;;;;;;;;;;5087162;28;20051;-67
2022/04/04 01:07:01;;;;;;;17.05;10.40;;;;;;;;;;5092230;28;20081;-67
2022/04/04 01:09:28;;;;;;;22.08;11.23;;;;;;;;;;5091787;28;20031;-67
2022/04/04 01:12:02;;;;;;;15.83;10.93;;;;;;;;;;5091982;28;20394;-67
2022/04/04 01:14:29;;;;;;;17.10;10.00;;;;;;;;;;5091883;28;20028;-67
2022/04/04 01:16:55;;;;;;;18.50;11.17;;;;;;;;;;5090731;28;20027;-68
2022/04/04 01:19:22;;;;;;;16.90;10.37;;;;;;;;;;5086340;28;20130;-68
2022/04/04 01:21:49;;;;;;;17.17;11.17;;;;;;;;;;5086367;28;20035;-67
2022/04/04 01:24:16;;;;;;;21.47;12.67;;;;;;;;;;5086523;28;20017;-68
2022/04/04 01:26:49;;;;;;;18.97;12.43;;;;;;;;;;5086361;28;20028;-67
2022/04/04 01:29:16;;;;;;;21.20;13.40;;;;;;;;;;5091895;28;20024;-68
2022/04/04 01:31:43;;;;;;;22.23;12.67;;;;;;;;;;5091441;28;20417;-66
2022/04/04 01:34:09;;;;;;;28.10;12.50;;;;;;;;;;5091769;28;20498;-67
2022/04/04 01:36:36;;;;;;;21.77;14.23;;;;;;;;;;5092044;28;20024;-68
2022/04/04 01:39:03;;;;;;;20.43;13.77;;;;;;;;;;5091085;28;20043;-67
2022/04/04 01:41:30;;;;;;;22.03;15.30;;;;;;;;;;5086145;28;20028;-67
2022/04/04 01:43:56;;;;;;;21.83;13.90;;;;;;;;;;5086037;28;20029;-68
2022/04/04 01:46:29;;;;;;;32.13;14.63;;;;;;;;;;5086047;28;20032;-68
2022/04/04 01:48:57;;;;;;;18.33;13.53;;;;;;;;;;5085871;28;20032;-67
2022/04/04 01:51:24;;;;;;;24.73;14.97;;;;;;;;;;5091765;28;20047;-68
2022/04/04 01:53:51;;;;;;;24.83;15.03;;;;;;;;;;5091734;28;20024;-68
2022/04/04 01:56:18;;;;;;;25.73;14.80;;;;;;;;;;5091843;28;20099;-67
2022/04/04 01:58:45;;;;;;;21.90;14.40;;;;;;;;;;5095200;28;20024;-68
2022/04/04 02:01:13;;;;;;;20.93;15.47;;;;;;;;;;5095071;28;20031;-68
2022/04/04 02:03:40;;;;;;;21.00;14.13;;;;;;;;;;5089649;28;20024;-67
2022/04/04 02:06:07;;;;;;;23.87;15.47;;;;;;;;;;5089450;28;20355;-67
2022/04/04 02:08:34;;;;;;;26.50;16.03;;;;;;;;;;5089514;28;20024;-68
2022/04/04 02:11:01;;;;;;;22.13;16.57;;;;;;;;;;5089599;28;20039;-67
2022/04/04 02:13:28;;;;;;;22.73;16.63;;;;;;;;;;5094430;28;20027;-67
2022/04/04 02:15:56;;;;;;;20.93;15.90;;;;;;;;;;5094996;28;20094;-67
2022/04/04 02:18:24;;;;;;;23.37;17.10;;;;;;;;;;5094710;28;20483;-67
2022/04/04 02:20:51;;;;;;;20.97;15.53;;;;;;;;;;5094836;28;20442;-67
2022/04/04 02:23:18;;;;;;;26.20;15.90;;;;;;;;;;5094527;28;20028;-67
2022/04/04 02:25:46;;;;;;;24.03;16.73;;;;;;;;;;5089468;28;20483;-66
2022/04/04 02:28:13;;;;;;;26.47;16.97;;;;;;;;;;5089192;28;20554;-66
2022/04/04 02:30:40;;;;;;;26.13;17.20;;;;;;;;;;5089171;28;20051;-66
2022/04/04 02:33:07;;;;;;;26.67;17.60;;;;;;;;;;5089184;28;20475;-66
2022/04/04 02:35:34;;;;;;;23.83;15.23;;;;;;;;;;5093527;28;20471;-67
2022/04/04 02:38:02;;;;;;;28.23;17.47;;;;;;;;;;5094417;28;20099;-67
2022/04/04 02:40:29;;;;;;;22.70;16.80;;;;;;;;;;5094116;28;20020;-67
2022/04/04 02:42:56;;;;;;;31.33;17.87;;;;;;;;;;5094391;28;20479;-67
2022/04/04 02:45:23;;;;;;;22.70;16.23;;;;;;;;;;5094318;28;20043;-67
2022/04/04 02:47:49;;;;;;;22.77;16.33;;;;;;;;;;5089749;28;20107;-67
2022/04/04 02:50:16;;;;;;;28.00;16.23;;;;;;;;;;5088651;28;20016;-67
2022/04/04 02:52:44;;;;;;;24.17;16.83;;;;;;;;;;5088686;28;20137;-67
2022/04/04 02:57:56;;;;;;;26.50;17.97;;;;;;;;;;5093353;28;20078;-66
2022/04/04 03:00:26;;;;;;;25.17;17.10;;;;;;;;;;5094116;28;20406;-67
2022/04/04 03:02:57;;;;;;;25.27;16.97;;;;;;;;;;5094116;28;20028;-66
2022/04/04 03:05:24;;;;;;;28.67;17.07;;;;;;;;;;5094008;28;20470;-66
2022/04/04 03:07:51;;;;;;;21.67;15.33;;;;;;;;;;5093404;28;20020;-66
2022/04/04 03:10:18;;;;;;;23.60;16.37;;;;;;;;;;5088350;28;20016;-66
2022/04/04 03:12:49;;;;;;;26.77;17.53;;;;;;;;;;5088316;28;20055;-68
2022/04/04 03:15:19;;;;;;;27.77;18.50;;;;;;;;;;5088476;28;20016;-66
2022/04/04 03:17:47;;;;;;;26.53;19.13;;;;;;;;;;5088211;28;20074;-66
2022/04/04 03:20:15;;;;;;;25.23;17.77;;;;;;;;;;5092510;28;20024;-66
2022/04/04 03:22:46;;;;;;;26.50;18.47;;;;;;;;;;5093516;28;20055;-67
2022/04/04 03:25:14;;;;;;;30.43;17.67;;;;;;;;;;5093521;28;20442;-67
2022/04/04 03:27:42;;;;;;;28.00;19.90;;;;;;;;;;5093506;28;20032;-67
2022/04/04 03:30:12;;;;;;;25.53;18.63;;;;;;;;;;5093659;28;20024;-66
2022/04/04 03:32:39;;;;;;;25.33;16.90;;;;;;;;;;5088429;28;20032;-67
2022/04/04 03:35:07;;;;;;;24.67;17.60;;;;;;;;;;5087938;28;20059;-66
2022/04/04 03:37:34;;;;;;;27.07;17.63;;;;;;;;;;5087442;28;20524;-65
2022/04/04 03:40:01;;;;;;;25.57;19.83;;;;;;;;;;5087905;28;20028;-67
2022/04/04 03:42:28;;;;;;;28.87;19.13;;;;;;;;;;5091585;28;20099;-67
2022/04/04 03:44:54;;;;;;;26.27;18.70;;;;;;;;;;5093184;28;20028;-66
2022/04/04 03:47:22;;;;;;;28.33;18.17;;;;;;;;;;5093212;28;20035;-66
2022/04/04 03:49:50;;;;;;;26.37;18.17;;;;;;;;;;5093146;28;20024;-66
2022/04/04 03:52:16;;;;;;;26.23;18.57;;;;;;;;;;5093059;28;20024;-67
2022/04/04 03:54:43;;;;;;;24.57;19.17;;;;;;;;;;5088488;28;20020;-66
2022/04/04 03:57:10;;;;;;;24.27;18.27;;;;;;;;;;5087626;28;20020;-67
2022/04/04 03:59:37;;;;;;;28.63;20.03;;;;;;;;;;5087534;28;20105;-67
2022/04/04 04:02:03;;;;;;;27.47;19.10;;;;;;;;;;5087273;28;20017;-69
2022/04/04 04:04:30;;;;;;;29.20;20.37;;;;;;;;;;5090594;28;20028;-67
2022/04/04 04:06:57;;;;;;;29.30;19.17;;;;;;;;;;5092742;28;20035;-67
2022/04/04 04:09:24;;;;;;;24.73;18.67;;;;;;;;;;5092901;28;20471;-67
2022/04/04 04:11:50;;;;;;;24.63;18.10;;;;;;;;;;5092358;28;20028;-66
2022/04/04 04:14:17;;;;;;;23.47;18.60;;;;;;;;;;5092942;28;20478;-67
2022/04/04 04:16:44;;;;;;;25.73;18.70;;;;;;;;;;5089449;28;20078;-67
2022/04/04 04:20:19;;;;;;;30.57;19.00;;;;;;;;;;5087020;28;20080;-67
2022/04/04 04:21:57;;;;;;;28.27;19.07;;;;;;;;;;5086686;28;20039;-67
2022/04/04 04:24:24;;;;;;;25.73;17.90;;;;;;;;;;5087095;28;20490;-67
2022/04/04 04:26:51;;;;;;;26.80;20.43;;;;;;;;;;5089909;28;20016;-67
2022/04/04 04:29:18;;;;;;;27.07;19.47;;;;;;;;;;5092562;28;20030;-66
2022/04/04 04:31:44;;;;;;;22.90;17.37;;;;;;;;;;5092413;28;20024;-67
2022/04/04 04:34:11;;;;;;;26.87;19.97;;;;;;;;;;5092587;28;20031;-66
2022/04/04 04:36:39;;;;;;;26.83;19.83;;;;;;;;;;5092240;28;20020;-66
2022/04/04 04:39:07;;;;;;;27.30;20.30;;;;;;;;;;5088758;28;20038;-67
2022/04/04 04:41:34;;;;;;;26.20;19.90;;;;;;;;;;5086790;28;20020;-66
2022/04/04 04:44:05;;;;;;;27.10;19.63;;;;;;;;;;5086649;28;20048;-67
2022/04/04 04:46:33;;;;;;;28.07;20.87;;;;;;;;;;5086770;28;20023;-66
2022/04/04 04:48:59;;;;;;;34.13;21.73;;;;;;;;;;5089627;28;20024;-67
2022/04/04 04:51:26;;;;;;;36.97;23.10;;;;;;;;;;5092117;28;20081;-67
2022/04/04 04:53:53;;;;;;;32.90;22.83;;;;;;;;;;5092004;28;20031;-66
2022/04/04 04:56:20;;;;;;;25.90;19.97;;;;;;;;;;5092260;28;20024;-66
2022/04/04 04:58:46;;;;;;;33.13;20.67;;;;;;;;;;5091959;28;20023;-67
2022/04/04 05:01:13;;;;;;;25.27;20.10;;;;;;;;;;5089419;28;20028;-67
2022/04/04 05:03:40;;;;;;;30.00;21.90;;;;;;;;;;5086847;28;20031;-67
2022/04/04 05:06:06;;;;;;;30.13;21.47;;;;;;;;;;5086796;28;20501;-67
2022/04/04 05:08:33;;;;;;;28.33;19.97;;;;;;;;;;5086769;28;20058;-67
2022/04/04 05:11:00;;;;;;;27.37;18.30;;;;;;;;;;5088920;28;20086;-67
2022/04/04 05:13:27;;;;;;;31.83;21.43;;;;;;;;;;5092237;28;20402;-67
2022/04/04 05:15:58;;;;;;;31.07;21.17;;;;;;;;;;5091592;28;20028;-66
2022/04/04 05:18:26;;;;;;;29.07;20.03;;;;;;;;;;5092096;28;20040;-67
2022/04/04 05:20:52;;;;;;;23.70;17.97;;;;;;;;;;5092129;28;20073;-67
2022/04/04 05:23:19;;;;;;;25.93;17.40;;;;;;;;;;5089405;28;20024;-69
2022/04/04 05:25:46;;;;;;;25.83;19.03;;;;;;;;;;5086707;28;20081;-69
2022/04/04 05:28:12;;;;;;;26.87;19.87;;;;;;;;;;5086408;28;20478;-68
2022/04/04 05:30:39;;;;;;;27.70;18.77;;;;;;;;;;5086536;28;20028;-69
2022/04/04 05:33:06;;;;;;;23.33;17.83;;;;;;;;;;5091011;28;20024;-69
2022/04/04 05:35:33;;;;;;;23.00;16.57;;;;;;;;;;5095830;28;20024;-68
2022/04/04 05:37:59;;;;;;;26.07;18.40;;;;;;;;;;5077667;28;20397;-69
2022/04/04 05:40:26;;;;;;;23.00;16.40;;;;;;;;;;5095755;28;20028;-68
2022/04/04 05:42:54;;;;;;;23.00;17.10;;;;;;;;;;5095593;28;20027;-69
2022/04/04 05:45:20;;;;;;;26.77;18.30;;;;;;;;;;5093519;28;20483;-69
2022/04/04 05:47:47;;;;;;;25.23;16.77;;;;;;;;;;5090218;28;20033;-69
2022/04/04 05:50:14;;;;;;;26.20;19.53;;;;;;;;;;5089847;28;20467;-69
2022/04/04 05:52:42;;;;;;;27.27;18.43;;;;;;;;;;5090171;28;20032;-68
2022/04/04 05:55:09;;;;;;;25.03;16.30;;;;;;;;;;5091003;28;20103;-69
2022/04/04 05:57:39;;;;;;;24.57;15.93;;;;;;;;;;5095427;28;20031;-69
2022/04/04 06:00:16;;;;;;;30.73;17.70;;;;;;;;;;5095352;28;20031;-68
2022/04/04 06:02:44;;;;;;;27.97;17.07;;;;;;;;;;5095131;28;20036;-69
2022/04/04 06:05:12;;;;;;;25.20;17.20;;;;;;;;;;5094870;28;20467;-69
2022/04/04 06:07:39;;;;;;;24.23;16.17;;;;;;;;;;5093418;28;20471;-69
2022/04/04 06:10:07;;;;;;;22.37;16.83;;;;;;;;;;5089856;28;20024;-68
2022/04/04 06:12:40;;;;;;;22.70;15.30;;;;;;;;;;5089714;28;20036;-69
2022/04/04 06:15:07;;;;;;;23.90;15.53;;;;;;;;;;5089711;28;20099;-69
2022/04/04 06:17:34;;;;;;;20.70;15.00;;;;;;;;;;5083932;28;20024;-69
2022/04/04 06:20:03;;;;;;;31.73;15.57;;;;;;;;;;5094059;28;20082;-68
2022/04/04 06:22:35;;;;;;;25.50;16.33;;;;;;;;;;5094817;28;20020;-69
2022/04/04 06:25:02;;;;;;;21.40;13.70;;;;;;;;;;5095089;28;20044;-69
2022/04/04 06:27:28;;;;;;;21.60;14.67;;;;;;;;;;5094751;28;20022;-68
2022/04/04 06:29:55;;;;;;;23.97;15.30;;;;;;;;;;5093095;28;20028;-68
2022/04/04 06:32:24;;;;;;;26.33;14.60;;;;;;;;;;5089319;28;20036;-68
2022/04/04 06:34:50;;;;;;;21.27;13.43;;;;;;;;;;5088745;28;20024;-67
2022/04/04 06:37:17;;;;;;;19.70;13.00;;;;;;;;;;5089536;28;20020;-69
2022/04/04 06:39:44;;;;;;;20.07;12.00;;;;;;;;;;5070204;28;20128;-69
2022/04/04 06:42:11;;;;;;;22.93;15.10;;;;;;;;;;5074389;28;20020;-68
2022/04/04 06:44:38;;;;;;;19.80;13.87;;;;;;;;;;5073135;28;20029;-69
2022/04/04 06:47:04;;;;;;;15.70;11.10;;;;;;;;;;5074214;28;20029;-69
2022/04/04 06:49:31;;;;;;;18.83;12.27;;;;;;;;;;5074235;28;20082;-68
2022/04/04 06:51:58;;;;;;;22.40;15.00;;;;;;;;;;5072344;28;20441;-67
2022/04/04 06:54:27;;;;;;;21.60;15.53;;;;;;;;;;5068900;28;20040;-69
2022/04/04 06:56:55;;;;;;;21.50;14.20;;;;;;;;;;5068630;28;20787;-69
2022/04/04 06:59:22;;;;;;;19.63;13.97;;;;;;;;;;5068795;28;20072;-68
2022/04/04 07:01:50;;;;;;;23.50;14.83;;;;;;;;;;5075687;28;20024;-68
2022/04/04 07:04:16;;;;;;;19.90;11.90;;;;;;;;;;5094082;28;20031;-69
2022/04/04 07:06:43;;;;;;;21.67;11.83;;;;;;;;;;5093732;28;20482;-68
2022/04/04 07:09:10;;;;;;;16.70;11.97;;;;;;;;;;5093520;28;20064;-69
2022/04/04 07:11:37;;;;;;;17.33;11.53;;;;;;;;;;5094098;28;20049;-68
2022/04/04 07:14:06;;;;;;;18.20;13.50;;;;;;;;;;5093581;28;20024;-68
2022/04/04 07:16:33;;;;;;;18.53;12.77;;;;;;;;;;5070399;28;20032;-69
2022/04/04 07:19:00;;;;;;;20.50;13.93;;;;;;;;;;5068355;28;20023;-69
2022/04/04 07:21:28;;;;;;;18.17;12.47;;;;;;;;;;5068228;28;20013;-68
2022/04/04 07:23:55;;;;;;;16.90;11.17;;;;;;;;;;5068215;28;20024;-69
2022/04/04 07:26:23;;;;;;;17.33;11.80;;;;;;;;;;5073083;28;20471;-69
2022/04/04 07:28:50;;;;;;;28.43;12.00;;;;;;;;;;5073286;28;20086;-69
2022/04/04 07:31:17;;;;;;;15.93;11.73;;;;;;;;;;5073303;28;20046;-68
2022/04/04 07:33:44;;;;;;;15.33;11.03;;;;;;;;;;5078760;28;20110;-69
2022/04/04 07:36:11;;;;;;;15.47;10.53;;;;;;;;;;5093492;28;20020;-68
2022/04/04 07:38:38;;;;;;;21.80;12.30;;;;;;;;;;5088181;28;20523;-68
2022/04/04 07:41:05;;;;;;;26.47;12.33;;;;;;;;;;5088134;28;20028;-67
2022/04/04 07:43:32;;;;;;;16.17;11.27;;;;;;;;;;5087630;28;20077;-68
2022/04/04 07:45:58;;;;;;;18.60;12.73;;;;;;;;;;5088134;28;20028;-68
2022/04/04 07:48:25;;;;;;;15.30;11.33;;;;;;;;;;5092889;28;20024;-68
2022/04/04 07:50:52;;;;;;;17.53;12.27;;;;;;;;;;5093066;28;20032;-68
2022/04/04 07:53:19;;;;;;;18.63;12.50;;;;;;;;;;5093214;28;20039;-68
2022/04/04 07:55:45;;;;;;;23.07;17.23;;;;;;;;;;5080782;28;20025;-68
2022/04/04 07:58:15;;;;;;;22.03;15.90;;;;;;;;;;5072705;28;20036;-68
2022/04/04 08:00:42;;;;;;;17.07;12.67;;;;;;;;;;5067627;28;20107;-68
2022/04/04 08:03:08;;;;;;;17.07;12.20;;;;;;;;;;5067505;28;20017;-68
2022/04/04 08:05:35;;;;;;;20.83;13.17;;;;;;;;;;5067475;28;20482;-68
2022/04/04 08:08:02;;;;;;;20.70;14.03;;;;;;;;;;5067450;28;20114;-69
2022/04/04 08:10:29;;;;;;;19.23;14.30;;;;;;;;;;5071545;28;20016;-68
2022/04/04 08:12:55;;;;;;;21.67;14.67;;;;;;;;;;5072697;28;20112;-68
2022/04/04 08:15:22;;;;;;;19.20;12.87;;;;;;;;;;5072416;28;20025;-68
2022/04/04 08:17:49;;;;;;;28.27;15.23;;;;;;;;;;5073199;28;20032;-68
2022/04/04 08:20:17;;;;;;;18.23;12.43;;;;;;;;;;5072484;28;20031;-67
2022/04/04 08:22:45;;;;;;;23.87;13.07;;;;;;;;;;5068198;28;20021;-68
2022/04/04 08:25:12;;;;;;;22.77;12.10;;;;;;;;;;5067338;28;20013;-69
2022/04/04 08:27:41;;;;;;;20.07;14.63;;;;;;;;;;5067208;28;20032;-68
2022/04/04 08:30:10;;;;;;;21.53;14.50;;;;;;;;;;5067148;28;20436;-69
2022/04/04 08:32:37;;;;;;;19.33;13.30;;;;;;;;;;5070262;28;20041;-68
2022/04/04 08:35:06;;;;;;;22.23;14.90;;;;;;;;;;5072298;28;20021;-68
2022/04/04 08:37:33;;;;;;;20.73;14.70;;;;;;;;;;5072146;28;20047;-68
2022/04/04 08:40:00;;;;;;;23.77;12.70;;;;;;;;;;5073415;28;20111;-68
2022/04/04 08:42:27;;;;;;;17.93;11.73;;;;;;;;;;5080811;28;20031;-68
2022/04/04 08:44:58;;;;;;;18.37;10.83;;;;;;;;;;5088529;28;20031;-68
2022/04/04 08:47:24;;;;;;;19.20;11.60;;;;;;;;;;5086983;28;20028;-68
2022/04/04 08:49:55;;;;;;;21.50;13.43;;;;;;;;;;5087330;28;20016;-68
2022/04/04 08:52:22;;;;;;;21.17;12.87;;;;;;;;;;5086810;28;20085;-68
2022/04/04 08:54:49;;;;;;;20.93;13.70;;;;;;;;;;5090658;28;20023;-68
2022/04/04 08:57:16;;;;;;;22.60;13.93;;;;;;;;;;5084462;28;20111;-67
2022/04/04 08:59:43;;;;;;;20.70;14.80;;;;;;;;;;5071974;28;20033;-68
2022/04/04 09:02:13;;;;;;;20.50;14.70;;;;;;;;;;5072095;28;20090;-68
2022/04/04 09:04:40;;;;;;;23.13;15.53;;;;;;;;;;5071845;28;20032;-68
2022/04/04 09:07:08;;;;;;;24.33;15.13;;;;;;;;;;5069689;28;20021;-68
2022/04/04 09:09:42;;;;;;;20.40;12.07;;;;;;;;;;5070703;28;20048;-67
2022/04/04 09:12:10;;;;;;;22.30;10.40;;;;;;;;;;5070763;28;20029;-68
2022/04/04 09:14:39;;;;;;;17.17;11.57;;;;;;;;;;5070824;28;20494;-67
2022/04/04 09:17:08;;;;;;;18.33;11.10;;;;;;;;;;5074065;28;20031;-67
2022/04/04 09:19:34;;;;;;;18.40;12.90;;;;;;;;;;5075968;28;20134;-68
2022/04/04 09:22:05;;;;;;;17.77;12.50;;;;;;;;;;5075706;28;20033;-68
2022/04/04 09:24:45;;;;;;;16.27;10.53;;;;;;;;;;5076002;28;20025;-68
2022/04/04 09:27:13;;;;;;;21.63;13.70;;;;;;;;;;5075524;28;20225;-68
2022/04/04 09:29:43;;;;;;;20.63;12.60;;;;;;;;;;5071377;28;20493;-67
2022/04/04 09:32:14;;;;;;;19.63;11.97;;;;;;;;;;5070425;28;20608;-68
2022/04/04 09:34:52;;;;;;;19.03;13.70;;;;;;;;;;5070216;28;20090;-68
2022/04/04 09:37:19;;;;;;;23.00;15.53;;;;;;;;;;5070153;28;20081;-69
2022/04/04 09:39:46;;;;;;;21.43;14.47;;;;;;;;;;5078622;28;20524;-68
2022/04/04 09:42:20;;;;;;;23.97;14.37;;;;;;;;;;5095671;28;20417;-66
2022/04/04 09:45:01;;;;;;;18.27;12.53;;;;;;;;;;5095453;28;20028;-68
2022/04/04 09:47:48;;;;;;;18.00;11.43;;;;;;;;;;5095709;28;20463;-68
2022/04/04 09:50:34;;;;;;;20.53;11.77;;;;;;;;;;5094538;28;20070;-67
2022/04/04 09:53:01;;;;;;;19.20;13.13;;;;;;;;;;5090158;28;20073;-68
2022/04/04 09:55:31;;;;;;;20.53;13.70;;;;;;;;;;5090271;28;20031;-68
2022/04/04 09:57:59;;;;;;;19.70;13.40;;;;;;;;;;5090189;28;20820;-68
2022/04/04 10:00:27;;;;;;;17.70;12.00;;;;;;;;;;5090847;28;20107;-68
2022/04/04 10:02:57;;;;;;;24.03;14.70;;;;;;;;;;5075816;28;20033;-68
2022/04/04 10:05:27;;;;;;;20.27;13.23;;;;;;;;;;5075177;28;20063;-68
2022/04/04 10:07:55;;;;;;;27.40;14.87;;;;;;;;;;5075094;28;20031;-67
2022/04/04 10:10:26;;;;;;;17.93;12.40;;;;;;;;;;5074957;28;20013;-67
2022/04/04 10:12:53;;;;;;;18.90;13.07;;;;;;;;;;5073495;28;20097;-67
2022/04/04 10:15:21;;;;;;;18.63;11.77;;;;;;;;;;5069247;28;20097;-66
2022/04/04 10:17:49;;;;;;;21.37;13.13;;;;;;;;;;5069404;28;20021;-67
2022/04/04 10:20:16;;;;;;;22.60;14.37;;;;;;;;;;5069606;28;20284;-68
2022/04/04 10:22:44;;;;;;;23.10;14.70;;;;;;;;;;5075353;28;20398;-68
2022/04/04 10:25:13;;;;;;;23.27;15.07;;;;;;;;;;5094912;28;20016;-68
2022/04/04 10:27:40;;;;;;;20.17;12.20;;;;;;;;;;5094922;28;20113;-68
2022/04/04 10:30:08;;;;;;;17.43;11.33;;;;;;;;;;5094866;28;20032;-67
2022/04/04 10:32:35;;;;;;;22.40;11.90;;;;;;;;;;5094687;28;20027;-68
2022/04/04 10:35:11;;;;;;;21.17;13.90;;;;;;;;;;5076889;28;20085;-68
2022/04/04 10:37:43;;;;;;;21.53;14.40;;;;;;;;;;5069453;28;20025;-68
2022/04/04 10:40:18;;;;;;;23.80;13.63;;;;;;;;;;5069091;28;20029;-68
2022/04/04 10:42:46;;;;;;;26.75;16.05;;;;;;;;;;5068718;28;20036;-66
2022/04/04 10:45:15;;;;;;;21.33;14.73;;;;;;;;;;5070289;28;20036;-68
2022/04/04 10:47:42;;;;;;;23.90;15.63;;;;;;;;;;5074440;28;20052;-68
2022/04/04 10:50:28;;;;;;;22.30;12.63;;;;;;;;;;5074030;28;20028;-68
2022/04/04 10:52:58;;;;;;;17.98;12.25;;;;;;;;;;5073980;28;20430;-68
2022/04/04 10:55:43;;;;;;;20.80;12.40;;;;;;;;;;5080263;28;20039;-68
2022/04/04 10:58:15;;;;;;;15.93;11.35;;;;;;;;;;5091260;28;20024;-68
2022/04/04 11:00:56;;;;;;;20.93;12.80;;;;;;;;;;5088935;28;20038;-68
2022/04/04 11:03:29;;;;;;;24.90;14.43;;;;;;;;;;5088489;28;20051;-68
2022/04/04 11:09:00;;;;;;;18.77;13.43;;;;;;;;;;5093093;28;20081;-68
2022/04/04 11:11:44;;;;;;;20.13;12.60;;;;;;;;;;5093830;28;20053;-68
2022/04/04 11:14:11;;;;;;;22.00;13.53;;;;;;;;;;5093951;28;20048;-69
2022/04/04 11:16:56;;;;;;;16.70;10.93;;;;;;;;;;5090874;28;20019;-68
2022/04/04 11:19:23;;;;;;;19.75;12.00;;;;;;;;;;5072861;28;20030;-69
2022/04/04 11:21:50;;;;;;;21.17;12.60;;;;;;;;;;5068350;28;20032;-68
2022/04/04 11:24:17;;;;;;;21.27;13.57;;;;;;;;;;5068345;28;20131;-68
2022/04/04 11:26:47;;;;;;;26.30;15.30;;;;;;;;;;5068263;28;20108;-68
2022/04/04 11:29:21;;;;;;;19.90;14.33;;;;;;;;;;5067718;28;20364;-67
2022/04/04 11:31:48;;;;;;;22.00;12.73;;;;;;;;;;5072848;28;20025;-67
2022/04/04 11:34:15;;;;;;;25.27;12.70;;;;;;;;;;5073365;28;20024;-68
2022/04/04 11:36:43;;;;;;;20.23;14.00;;;;;;;;;;5073307;28;20028;-68
2022/04/04 11:39:10;;;;;;;23.10;12.07;;;;;;;;;;5085092;28;20059;-68
2022/04/04 11:41:46;;;;;;;20.17;11.50;;;;;;;;;;5092343;28;20024;-68
2022/04/04 11:44:25;;;;;;;23.17;11.87;;;;;;;;;;5088131;28;20032;-68
2022/04/04 11:47:05;;;;;;;22.10;12.80;;;;;;;;;;5088115;28;20024;-68
2022/04/04 11:49:38;;;;;;;21.93;15.20;;;;;;;;;;5088202;28;20399;-68
2022/04/04 11:52:06;;;;;;;19.17;12.80;;;;;;;;;;5089372;28;20487;-68
2022/04/04 11:54:48;;;;;;;19.20;13.07;;;;;;;;;;5093054;28;20419;-67
2022/04/04 11:57:15;;;;;;;22.33;14.47;;;;;;;;;;5093267;28;20012;-67
2022/04/04 11:59:43;;;;;;;17.23;11.53;;;;;;;;;;5087968;28;20077;-68
2022/04/04 12:02:11;;;;;;;20.63;12.27;;;;;;;;;;5080197;28;20027;-66
2022/04/04 12:04:40;;;;;;;23.67;13.83;;;;;;;;;;5090835;28;20030;-66
2022/04/04 12:07:08;;;;;;;25.37;14.00;;;;;;;;;;5087714;28;20475;-66
2022/04/04 12:09:36;;;;;;;22.73;12.63;;;;;;;;;;5087681;28;20089;-66
2022/04/04 12:12:10;;;;;;;25.13;15.13;;;;;;;;;;5087777;28;20036;-67
2022/04/04 12:14:41;;;;;;;20.10;13.80;;;;;;;;;;5089576;28;20024;-66
2022/04/04 12:17:08;;;;;;;23.63;14.60;;;;;;;;;;5085302;28;20103;-66
2022/04/04 12:19:45;;;;;;;20.87;13.67;;;;;;;;;;5072481;28;20055;-67
2022/04/04 12:24:57;;;;;;;;;;;;;;;;;;5072952;28;20036;-67
2022/04/04 12:27:24;;;;;;;26.57;14.20;;;;;;;;;;5069034;28;19908;-67
2022/04/04 12:29:58;;;;;;;27.27;14.47;;;;;;;;;;5067188;28;20033;-66
2022/04/04 12:32:25;;;;;;;23.60;14.17;;;;;;;;;;5085781;28;20087;-67
2022/04/04 12:34:58;;;;;;;19.20;11.37;;;;;;;;;;5087177;28;20040;-67
2022/04/04 12:37:35;;;;;;;21.70;11.90;;;;;;;;;;5089873;28;20518;-67
2022/04/04 12:40:15;;;;;;;20.37;12.50;;;;;;;;;;5091940;28;20566;-67
2022/04/04 12:42:42;;;;;;;31.23;15.87;;;;;;;;;;5090827;28;20024;-66
2022/04/04 12:45:12;;;;;;;26.87;18.03;;;;;;;;;;5092493;28;20028;-66
2022/04/04 12:47:55;;;;;;;28.97;16.47;;;;;;;;;;5092429;28;20482;-67
2022/04/04 12:50:22;;;;;;;23.43;14.73;;;;;;;;;;5087125;28;20013;-67
2022/04/04 12:52:58;;;;;;;21.80;13.57;;;;;;;;;;5074939;28;20040;-66
2022/04/04 12:55:25;;;;;;;24.90;14.73;;;;;;;;;;5066835;28;20027;-66
2022/04/04 12:57:52;;;;;;;27.37;15.83;;;;;;;;;;5066481;28;20056;-66
2022/04/04 13:00:28;;;;;;;35.27;20.60;;;;;;;;;;5071427;28;20032;-67
2022/04/04 13:02:56;;;;;;;31.70;18.97;;;;;;;;;;5072814;28;20021;-67
2022/04/04 13:05:27;;;;;;;23.77;14.17;;;;;;;;;;5071477;28;20130;-66
2022/04/04 13:07:55;;;;;;;42.50;18.73;;;;;;;;;;5071921;28;20025;-67
2022/04/04 13:10:24;;;;;;;36.70;22.63;;;;;;;;;;5071747;28;20041;-66
2022/04/04 13:12:51;;;;;;;34.53;19.30;;;;;;;;;;5066247;28;20519;-67
2022/04/04 13:15:37;;;;;;;37.40;20.70;;;;;;;;;;5066560;28;20063;-66
2022/04/04 13:18:04;;;;;;;29.27;17.90;;;;;;;;;;5070441;28;20032;-67
2022/04/04 13:20:31;;;;;;;30.57;15.73;;;;;;;;;;5086758;28;20031;-67
2022/04/04 13:22:57;;;;;;;36.13;18.50;;;;;;;;;;5091971;28;20086;-68
2022/04/04 13:25:25;;;;;;;32.30;16.17;;;;;;;;;;5092055;28;20031;-68
2022/04/04 13:27:51;;;;;;;29.77;16.60;;;;;;;;;;5091721;28;20095;-67
2022/04/04 13:30:18;;;;;;;31.00;17.33;;;;;;;;;;5092005;28;20476;-67
2022/04/04 13:32:45;;;;;;;29.20;15.47;;;;;;;;;;5091511;28;20375;-66
2022/04/04 13:35:12;;;;;;;25.13;15.60;;;;;;;;;;5086463;28;20036;-68
2022/04/04 13:37:39;;;;;;;20.27;13.43;;;;;;;;;;5086617;28;20024;-67
2022/04/04 13:40:07;;;;;;;25.07;15.73;;;;;;;;;;5078627;28;20024;-67
2022/04/04 13:42:34;;;;;;;23.97;14.37;;;;;;;;;;5066129;28;20017;-68
2022/04/04 13:45:00;;;;;;;27.10;14.77;;;;;;;;;;5071381;28;20471;-68
2022/04/04 13:47:27;;;;;;;30.67;20.67;;;;;;;;;;5071174;28;20027;-67
2022/04/04 13:49:54;;;;;;;29.40;16.73;;;;;;;;;;5071510;28;20073;-68
2022/04/04 13:52:20;;;;;;;26.73;16.97;;;;;;;;;;5071658;28;20114;-68
2022/04/04 13:54:47;;;;;;;24.23;16.53;;;;;;;;;;5075204;28;20024;-68
2022/04/04 13:57:14;;;;;;;18.17;12.60;;;;;;;;;;5069819;28;20033;-68
2022/04/04 13:59:40;;;;;;;25.50;14.63;;;;;;;;;;5069433;28;20090;-69
2022/04/04 14:02:07;;;;;;;24.20;15.20;;;;;;;;;;5070601;28;20602;-68
2022/04/04 14:04:35;;;;;;;20.10;13.33;;;;;;;;;;5069227;28;20031;-68
2022/04/04 14:07:10;;;;;;;18.50;13.70;;;;;;;;;;5074221;28;20044;-68
2022/04/04 14:09:37;;;;;;;29.40;15.55;;;;;;;;;;5075077;28;20016;-68
2022/04/04 14:12:04;;;;;;;20.80;13.80;;;;;;;;;;5074809;28;20032;-68
2022/04/04 14:14:31;;;;;;;15.17;11.03;;;;;;;;;;5074817;28;20063;-68
2022/04/04 14:17:00;;;;;;;17.60;11.17;;;;;;;;;;5074934;28;20661;-68
2022/04/04 14:19:27;;;;;;;18.03;12.23;;;;;;;;;;5069079;28;20057;-67
2022/04/04 14:21:54;;;;;;;19.40;11.67;;;;;;;;;;5069578;28;20032;-69
2022/04/04 14:24:20;;;;;;;18.73;11.67;;;;;;;;;;5070184;28;20021;-68
2022/04/04 14:26:47;;;;;;;24.33;11.53;;;;;;;;;;5081971;28;20020;-69
2022/04/04 14:29:14;;;;;;;18.90;11.90;;;;;;;;;;5094033;28;20103;-68
2022/04/04 14:31:41;;;;;;;19.17;12.40;;;;;;;;;;5094669;28;20035;-69
2022/04/04 14:34:08;;;;;;;22.97;12.67;;;;;;;;;;5094270;28;20492;-67